Data for 08/02/2008

Time Sea-Level Adjusted Pressure Absolute Pressure Temperature Relative Humidity Dew Point   
(mb) (inHg) (mb) (inHg) (C) (F) (%) (C) (F)
00:05 1015 29.97 845 24.95 20.1 68.2 37 5.3 41.5
00:10 1016 30 845 24.95 20 67.9 38 5.4 41.8
00:15 1016 30 845 24.95 19.6 67.3 39 5.6 42
00:20 1016 30 845 24.95 19.4 66.9 39 5.4 41.7
00:25 1016 30 845 24.95 19.2 66.6 41 5.7 42.2
00:30 1016 30 845 24.95 19 66.2 41 5.6 42.1
00:35 1016 30 845 24.95 19.1 66.3 39 4.9 40.9
00:40 1016 30 845 24.95 19.7 67.4 36 4.5 40
00:45 1016 30 845 24.95 20.3 68.5 34 4.2 39.5
00:50 1016 30 845 24.95 20.5 69 35 4.5 40.2
00:55 1016 30 845 24.95 20.6 69 33 4.1 39.4
01:00 1016 30 845 24.95 20.7 69.2 34 4.5 40.1
01:05 1016 30 845 24.95 20.4 68.8 36 5 41.1
01:10 1016 30 845 24.95 19.7 67.5 39 5.3 41.6
01:15 1016 30 845 24.95 19.2 66.6 39 5.2 41.3
01:20 1016 30 845 24.95 18.9 66.1 42 5.8 42.5
01:25 1016 30 845 24.95 18.4 65.2 42 5.5 41.9
01:30 1016 30 845 24.95 18.3 64.9 43 5.6 42.1
01:35 1016 30 845 24.95 18.3 64.9 43 5.8 42.4
01:40 1016 30 845 24.95 18.2 64.7 43 5.6 42
01:45 1016 30 845 24.95 18 64.4 42 4.9 40.8
01:50 1016 30 845 24.95 18.5 65.2 40 4.9 40.8
01:55 1016 30 845 24.95 18.4 65.2 42 5.4 41.6
02:00 1016 30 845 24.95 18.2 64.7 41 4.7 40.5
02:05 1015 29.97 845 24.95 18.4 65.2 41 5.2 41.4
02:10 1016 30 845 24.95 18.2 64.8 43 5.6 42
02:15 1016 30 845 24.95 17.9 64.2 43 5.3 41.6
02:20 1016 30 845 24.95 18 64.5 41 4.9 40.7
02:25 1016 30 845 24.95 18.1 64.6 42 5.2 41.4
02:30 1016 30 845 24.95 17.8 64 44 5.6 42.1
02:35 1016 30 845 24.95 17.7 63.8 44 5.5 42
02:40 1016 30 845 24.95 17.9 64.2 42 5.1 41.1
02:45 1016 30 845 24.95 17.8 64 44 5.6 42.1
02:50 1016 30 845 24.95 17.7 63.8 42 4.8 40.6
02:55 1016 30 845 24.95 17.8 64 43 5.2 41.4
03:00 1016 30 845 24.95 17.8 64 43 5 41
03:05 1016 30 845 24.95 17.7 63.9 47 6.3 43.3
03:10 1016 30 845 24.95 17.4 63.3 45 5.5 41.8
03:15 1016 30 845 24.95 16.9 62.4 48 5.9 42.7
03:20 1016 30 845 24.95 16.3 61.4 50 5.9 42.6
03:25 1016 30 845 24.95 16.2 61.2 48 5.3 41.5
03:30 1016 30 845 24.95 16.1 61.1 49 5.5 41.9
03:35 1016 30 845 24.95 16 60.9 48 5.1 41.2
03:40 1016 30 845 24.95 16.3 61.4 45 4.6 40.2
03:45 1016 30 845 24.95 16.9 62.3 45 5 41
03:50 1016 30 845 24.95 16.9 62.5 44 4.8 40.6
03:55 1016 30 845 24.95 17.2 63 43 4.6 40.3
04:00 1016 30 845 24.95 17.1 62.9 44 5 41.1
04:05 1016 30 845 24.95 16.8 62.2 46 5.3 41.6
04:10 1016 30 845 24.95 16.2 61.2 49 5.7 42.3
04:15 1016 30 845 24.95 15.9 60.6 49 5.3 41.5
04:20 1016 30 845 24.95 15.8 60.5 49 5.3 41.5
04:25 1016 30 845 24.95 16 60.7 52 6.1 43.1
04:30 1016 30 845 24.95 16 60.7 49 5.2 41.4
04:35 1016 30 845 24.95 15.9 60.6 49 5.4 41.7
04:40 1016 30 845 24.95 16 60.8 51 6 42.7
04:45 1016 30 845 24.95 16.2 61.1 47 5 40.9
04:50 1016 30 845 24.95 16.4 61.6 46 5 41
04:55 1016 30 845 24.95 16.5 61.8 46 5 41.1
05:00 1016 30 845 24.95 16.5 61.8 46 5.1 41.1
05:05 1016 30 845 24.95 16.5 61.7 46 5 41.1
05:10 1016 30 845 24.95 16.5 61.8 46 5.1 41.2
05:15 1016 30 845 24.95 16.6 61.8 48 5.5 41.8
05:20 1016 30 845 24.95 16.5 61.8 50 6.2 43.2
05:25 1016 30 845 24.95 16.7 62.1 47 5.4 41.7
05:30 1016 30 845 24.95 17 62.5 44 4.7 40.5
05:35 1016 30 845 24.95 17 62.5 45 5 41.1
05:40 1016 30 845 24.95 16.9 62.3 49 6.1 43
05:45 1016 30 845 24.95 16.6 61.8 50 6.2 43.1
05:50 1016 30 845 24.95 16.1 61 51 6.2 43.1
05:55 1016 30 845 24.95 15.6 60.1 54 6.3 43.4
06:00 1016 30 845 24.95 15 59.1 54 6 42.8
06:05 1016 30 845 24.95 14.8 58.7 53 5.5 41.9
06:10 1016 30 845 24.95 14.9 58.7 53 5.4 41.7
06:15 1016 30 846 24.98 14.7 58.5 53 5.4 41.7
06:20 1016 30 846 24.98 14.7 58.5 54 5.5 41.9
06:25 1016 30 846 24.98 14.7 58.4 54 5.6 42
06:30 1017 30.03 846 24.98 14.5 58.1 54 5.5 41.8
06:35 1017 30.03 846 24.98 14.6 58.3 53 5.1 41.2
06:40 1017 30.03 846 24.98 14.8 58.7 54 5.7 42.3
06:45 1017 30.03 846 24.98 14.5 58.2 56 6 42.7
06:50 1017 30.03 846 24.98 14.2 57.6 57 5.9 42.6
06:55 1017 30.03 846 24.98 14.2 57.5 57 5.8 42.5
07:00 1017 30.03 846 24.98 14.1 57.3 57 5.7 42.3
07:05 1017 30.03 846 24.98 14.2 57.5 56 5.7 42.3
07:10 1017 30.03 846 24.98 14.2 57.6 56 5.6 42
07:15 1017 30.03 846 24.98 14.4 58 55 5.6 42.2
07:20 1017 30.03 846 24.98 14.6 58.3 55 5.8 42.5
07:25 1017 30.03 846 24.98 14.8 58.6 54 5.7 42.2
07:30 1017 30.03 846 24.98 15.2 59.4 53 5.9 42.6
07:35 1017 30.03 846 24.98 15.5 59.8 53 6 42.8
07:40 1017 30.03 846 24.98 15.8 60.4 52 6.1 42.9
07:45 1017 30.03 846 24.98 16.3 61.3 50 6.1 42.9
07:50 1017 30.03 846 24.98 16.7 62 50 6.4 43.4
07:55 1017 30.03 846 24.98 17.1 62.8 51 6.9 44.4
08:00 1017 30.03 846 24.98 17.1 62.8 51 7 44.7
08:05 1017 30.03 846 24.98 17.8 64 47 6.5 43.7
08:10 1017 30.03 846 24.98 18.3 65 47 7.1 44.7
08:15 1017 30.03 846 24.98 18.4 65.1 47 7.2 44.9
08:20 1017 30.03 846 24.98 18.9 66 45 6.9 44.4
08:25 1017 30.03 846 24.98 19.6 67.2 44 7.3 45.1
08:30 1017 30.03 846 24.98 19.9 67.9 44 7.3 45.2
08:35 1017 30.03 846 24.98 20.4 68.7 41 6.7 44.1
08:40 1017 30.03 846 24.98 21.2 70.1 38 6.5 43.7
08:45 1017 30.03 846 24.98 21.3 70.4 37 6.4 43.5
08:50 1017 30.03 846 24.98 21.5 70.6 37 6.4 43.5
08:55 1017 30.03 846 24.98 21.5 70.7 39 7 44.6
09:00 1017 30.03 846 24.98 20.9 69.7 37 6.1 42.9
09:05 1017 30.03 846 24.98 20.5 68.8 36 4.9 40.8
09:10 1017 30.03 846 24.98 20.4 68.8 35 4.7 40.5
09:15 1017 30.03 846 24.98 20.5 68.9 37 5.7 42.2
09:20 1017 30.03 846 24.98 21 69.8 35 5.3 41.6
09:25 1017 30.03 846 24.98 21.2 70.1 35 5.5 41.8
09:30 1017 30.03 846 24.98 21.6 70.8 34 5 41.1
09:35 1017 30.03 846 24.98 22 71.5 34 5.6 42
09:40 1017 30.03 846 24.98 21.8 71.2 33 5 41
09:45 1017 30.03 846 24.98 21.8 71.2 33 4.9 40.8
09:50 1017 30.03 846 24.98 22.2 72 32 4.8 40.7
09:55 1017 30.03 846 24.98 22.2 71.9 33 5.1 41.3
10:00 1017 30.03 846 24.98 22.3 72.1 32 4.9 40.7
10:05 1017 30.03 846 24.98 22.9 73.1 30 4.7 40.5
10:10 1017 30.03 846 24.98 22.5 72.5 31 4.7 40.5
10:15 1017 30.03 846 24.98 22.1 71.8 33 5.3 41.6
10:20 1017 30.03 846 24.98 22.8 73.1 30 4.4 39.9
10:25 1017 30.03 846 24.98 23.2 73.8 30 5 40.9
10:30 1017 30.03 846 24.98 23.5 74.3 30 5 40.9
10:35 1017 30.03 846 24.98 23.5 74.3 29 4.8 40.7
10:40 1017 30.03 846 24.98 24.3 75.7 28 4.8 40.6
10:45 1017 30.03 846 24.98 24.2 75.6 29 5.2 41.3
10:50 1016 30 846 24.98 24.1 75.4 28 4.9 40.9
10:55 1017 30.03 846 24.98 23.9 75.1 29 5.2 41.4
11:00 1017 30.03 846 24.98 23.7 74.6 31 5.5 42
11:05 1017 30.03 846 24.98 24 75.1 29 5.3 41.5
11:10 1016 30 846 24.98 24.8 76.7 29 5.7 42.3
11:15 1016 30 846 24.98 24.8 76.7 31 6.7 44.1
11:20 1016 30 846 24.98 24.6 76.2 31 6.6 43.9
11:25 1016 30 846 24.98 24.4 75.8 32 7 44.7
11:30 1016 30 845 24.95 24 75.2 32 6.3 43.4
11:35 1016 30 846 24.98 24.2 75.6 32 6.6 43.8
11:40 1016 30 846 24.98 24.1 75.5 32 6.8 44.3
11:45 1016 30 845 24.95 23.8 74.9 33 6.8 44.3
11:50 1016 30 845 24.95 23.9 75 32 6.6 43.8
11:55 1016 30 845 24.95 24.2 75.6 31 6.3 43.3
12:00 1016 30 845 24.95 24.3 75.7 32 6.6 43.8
12:05 1016 30 845 24.95 24.4 75.9 30 6.1 43.1
12:10 1016 30 845 24.95 25.1 77.2 28 5.8 42.5
12:15 1016 30 845 24.95 25.4 77.7 30 6.6 43.9
12:20 1016 30 845 24.95 25.6 78 28 6.1 43
12:25 1016 30 845 24.95 26.5 79.6 27 6.4 43.4
12:30 1016 30 845 24.95 25.7 78.2 28 6.2 43.1
12:35 1015 29.97 845 24.95 26.6 79.8 27 6.1 42.9
12:40 1016 30 845 24.95 27.1 80.8 27 6.8 44.3
12:45 1016 30 845 24.95 26.8 80.2 28 7.3 45.1
12:50 1015 29.97 845 24.95 26.4 79.5 27 6.1 43
12:55 1015 29.97 845 24.95 27.1 80.7 26 6.4 43.5
13:00 1015 29.97 845 24.95 25.9 78.6 28 6.1 43.1
13:05 1015 29.97 844 24.92 26.4 79.5 26 5.7 42.3
13:10 1015 29.97 844 24.92 26.5 79.7 27 6.4 43.5
13:15 1015 29.97 844 24.92 26.5 79.7 26 5.7 42.2
13:20 1015 29.97 844 24.92 26.8 80.3 27 6.5 43.7
13:25 1015 29.97 844 24.92 25.8 78.5 28 6.1 42.9
13:30 1015 29.97 844 24.92 27 80.5 26 6 42.8
13:35 1015 29.97 844 24.92 27.3 81.1 24 5.1 41.2
13:40 1015 29.97 844 24.92 27.1 80.7 23 4.2 39.6
13:45 1015 29.97 844 24.92 27.2 80.9 20 2.5 36.5
13:50 1015 29.97 844 24.92 26.6 79.8 22 3.4 38.1
13:55 1015 29.97 844 24.92 26.3 79.3 24 4.4 40
14:00 1015 29.97 844 24.92 27.2 80.9 23 4.8 40.6
14:05 1015 29.97 844 24.92 27.7 81.9 20 2.8 37.1
14:10 1015 29.97 844 24.92 26.8 80.2 23 4 39.2
14:15 1015 29.97 844 24.92 27.5 81.5 22 4 39.2
14:20 1015 29.97 844 24.92 28.2 82.8 21 4 39.1
14:25 1015 29.97 844 24.92 28.2 82.7 20 3.7 38.6
14:30 1014 29.94 844 24.92 27.9 82.2 22 4.2 39.6
14:35 1014 29.94 844 24.92 28.7 83.7 19 3.3 38
14:40 1014 29.94 843 24.89 28.3 82.9 22 4.5 40.2
14:45 1014 29.94 843 24.89 27.9 82.2 20 3.3 38
14:50 1014 29.94 843 24.89 27.7 81.8 20 3.3 37.9
14:55 1014 29.94 843 24.89 27.2 81 21 3 37.4
15:00 1014 29.94 843 24.89 27.2 80.9 24 5 40.9
15:05 1014 29.94 843 24.89 26 78.8 24 4.1 39.5
15:10 1014 29.94 843 24.89 25.7 78.2 27 5.5 41.9
15:15 1014 29.94 843 24.89 25.5 77.9 29 6.3 43.4
15:20 1014 29.94 843 24.89 25.6 78.1 33 8.4 47
15:25 1014 29.94 843 24.89 25.9 78.6 31 7.5 45.5
15:30 1014 29.94 843 24.89 26.7 80 29 7.2 44.9
15:35 1014 29.94 843 24.89 26.8 80.3 27 6.4 43.6
15:40 1014 29.94 843 24.89 26.8 80.3 26 5.8 42.4
15:45 1013 29.91 843 24.89 26.8 80.2 25 5.5 41.8
15:50 1013 29.91 843 24.89 26.6 79.8 24 4.4 39.9
15:55 1013 29.91 843 24.89 26.2 79.1 24 4.4 39.9
16:00 1013 29.91 842 24.86 26.2 79.1 28 6.5 43.8
16:05 1013 29.91 842 24.86 26.5 79.6 25 5.2 41.4
16:10 1013 29.91 842 24.86 26.7 80 26 5.8 42.4
16:15 1013 29.91 843 24.89 26.7 80 25 5.2 41.4
16:20 1013 29.91 843 24.89 26.6 79.9 25 5.2 41.4
16:25 1013 29.91 842 24.86 27.4 81.2 26 6.5 43.8
16:30 1013 29.91 842 24.86 27 80.7 27 6.6 43.8
16:35 1013 29.91 842 24.86 26.4 79.6 27 6.2 43.2
16:40 1013 29.91 842 24.86 26.3 79.3 27 6.3 43.4
16:45 1013 29.91 842 24.86 26.1 79.1 25 5.1 41.2
16:50 1013 29.91 842 24.86 26.3 79.3 25 5.2 41.4
16:55 1013 29.91 842 24.86 26.3 79.3 27 5.9 42.6
17:00 1013 29.91 842 24.86 26 78.8 27 5.7 42.3
17:05 1014 29.94 843 24.89 25.6 78.1 29 6.3 43.3
17:10 1014 29.94 843 24.89 25.4 77.8 32 7.6 45.6
17:15 1014 29.94 843 24.89 25.5 77.9 28 5.9 42.7
17:20 1013 29.91 842 24.86 26 78.8 28 6.5 43.8
17:25 1013 29.91 842 24.86 26.5 79.6 25 5.2 41.4
17:30 1013 29.91 842 24.86 27 80.5 27 6.7 44
17:35 1013 29.91 842 24.86 25.9 78.7 30 7.1 44.9
17:40 1013 29.91 843 24.89 24.3 75.8 31 6.3 43.4
17:45 1013 29.91 843 24.89 23.8 74.9 31 6.1 42.9
17:50 1013 29.91 843 24.89 23.4 74.1 31 5.7 42.3
17:55 1014 29.94 843 24.89 23.5 74.3 33 6.4 43.5
18:00 1014 29.94 843 24.89 23.6 74.5 32 6.3 43.3
18:05 1014 29.94 843 24.89 23.6 74.4 32 6.2 43.2
18:10 1014 29.94 843 24.89 23.5 74.2 33 6.4 43.6
18:15 1014 29.94 843 24.89 23.2 73.8 34 6.6 43.9
18:20 1014 29.94 843 24.89 23.1 73.6 35 6.9 44.4
18:25 1014 29.94 843 24.89 22.8 73 34 6.2 43.2
18:30 1014 29.94 843 24.89 22.6 72.7 34 6.2 43.2
18:35 1014 29.94 843 24.89 22.4 72.3 35 6.3 43.4
18:40 1014 29.94 843 24.89 22.4 72.2 34 5.7 42.3
18:45 1014 29.94 843 24.89 22.5 72.4 33 5.6 42.1
18:50 1014 29.94 843 24.89 22.7 72.8 34 6 42.9
18:55 1014 29.94 843 24.89 22.6 72.6 32 5.4 41.7
19:00 1014 29.94 843 24.89 22.6 72.7 32 5.4 41.7
19:05 1014 29.94 843 24.89 22.7 72.9 32 5.5 41.9
19:10 1014 29.94 843 24.89 22.8 73 33 5.7 42.2
19:15 1014 29.94 843 24.89 23 73.3 35 6.8 44.2
19:20 1014 29.94 843 24.89 22.6 72.7 38 7.7 45.9
19:25 1014 29.94 843 24.89 22.4 72.4 37 7.4 45.3
19:30 1013 29.91 843 24.89 22.5 72.4 37 7.4 45.2
19:35 1013 29.91 843 24.89 22.5 72.5 39 8.2 46.8
19:40 1013 29.91 843 24.89 22.3 72.1 41 8.4 47.2
19:45 1013 29.91 843 24.89 21.9 71.5 38 7.2 44.9
19:50 1014 29.94 843 24.89 22 71.5 38 7 44.6
19:55 1014 29.94 843 24.89 21.9 71.5 41 8.3 46.9
20:00 1014 29.94 844 24.92 21.7 71.1 40 7.9 46.2
20:05 1015 29.97 844 24.92 21.7 71 38 7.1 44.8
20:10 1015 29.97 844 24.92 21.8 71.2 43 8.8 47.8
20:15 1015 29.97 845 24.95 21 69.9 50 10.5 50.9
20:20 1016 30 845 24.95 20.2 68.4 51 9.8 49.6
20:25 1016 30 845 24.95 20.2 68.3 48 9 48.2
20:30 1016 30 845 24.95 20.3 68.6 46 8.6 47.5
20:35 1016 30 845 24.95 20.3 68.6 45 8.1 46.6
20:40 1016 30 845 24.95 20.2 68.4 46 8.4 47.1
20:45 1016 30 845 24.95 19.9 67.9 47 8.5 47.2
20:50 1016 30 845 24.95 19.6 67.2 48 8.5 47.2
20:55 1016 30 845 24.95 19.4 66.9 48 8.2 46.8
21:00 1017 30.03 846 24.98 19.3 66.7 48 8.3 46.9
21:05 1017 30.03 846 24.98 19 66.2 52 9 48.2
21:10 1017 30.03 846 24.98 18.5 65.3 55 9.3 48.8
21:15 1017 30.03 846 24.98 17.9 64.3 60 10.1 50.1
21:20 1017 30.03 846 24.98 17.2 63 62 10 50
21:25 1017 30.03 846 24.98 16.9 62.4 59 8.8 47.9
21:30 1017 30.03 847 25.01 16.8 62.3 60 9 48.3
21:35 1017 30.03 847 25.01 16.9 62.4 57 8.5 47.3
21:40 1018 30.06 847 25.01 16.9 62.4 58 8.6 47.5
21:45 1018 30.06 847 25.01 16.7 62.1 60 9 48.2
21:50 1018 30.06 847 25.01 16.2 61.2 63 9.1 48.4
21:55 1018 30.06 847 25.01 16.1 60.9 64 9.3 48.7
22:00 1018 30.06 847 25.01 15.9 60.7 64 9.1 48.5
22:05 1018 30.06 847 25.01 15.9 60.6 61 8.5 47.2
22:10 1018 30.06 847 25.01 15.8 60.5 63 8.9 48
22:15 1018 30.06 847 25.01 15.7 60.2 63 8.6 47.5
22:20 1018 30.06 847 25.01 15.6 60 63 8.7 47.7
22:25 1018 30.06 848 25.04 15.5 59.9 64 8.8 47.9
22:30 1018 30.06 848 25.04 15.3 59.6 65 8.9 48.1
22:35 1018 30.06 848 25.04 15.2 59.3 66 9 48.2
22:40 1018 30.06 848 25.04 15.1 59.1 65 8.6 47.5
22:45 1018 30.06 848 25.04 15.2 59.4 66 8.9 48.1
22:50 1018 30.06 848 25.04 15.1 59.2 67 9.1 48.5
22:55 1018 30.06 848 25.04 15 59 68 9.2 48.5
23:00 1018 30.06 848 25.04 14.7 58.4 70 9.3 48.8
23:05 1018 30.06 848 25.04 14.5 58.1 70 9.1 48.5
23:10 1018 30.06 848 25.04 14.5 58.1 70 9.1 48.4
23:15 1018 30.06 848 25.04 14.6 58.3 67 8.7 47.6
23:20 1018 30.06 848 25.04 14.9 58.8 66 8.7 47.6
23:25 1018 30.06 848 25.04 15.1 59.1 65 8.7 47.6
23:30 1018 30.06 847 25.01 15.2 59.3 65 8.7 47.6
23:35 1018 30.06 847 25.01 15.2 59.3 64 8.4 47.2
23:40 1018 30.06 848 25.04 15.3 59.5 64 8.5 47.4
23:45 1018 30.06 848 25.04 15.4 59.7 63 8.4 47.2
23:50 1018 30.06 848 25.04 15.4 59.8 63 8.6 47.5
23:55 1018 30.06 848 25.04 15.3 59.6 63 8.5 47.3
24:00 1018 30.06 848 25.04 15.4 59.6 64 8.6 47.5